createdAt,value
2023-02-18T00:01:32.215Z,10.50
2023-02-18T00:04:02.585Z,10.50
2023-02-18T00:06:33.061Z,10.50
2023-02-18T00:09:02.370Z,10.40
2023-02-18T00:11:32.615Z,10.40
2023-02-18T00:14:02.189Z,10.40
2023-02-18T00:16:32.309Z,10.40
2023-02-18T00:19:04.888Z,10.40
2023-02-18T00:21:34.172Z,10.40
2023-02-18T00:24:01.278Z,10.40
2023-02-18T00:26:31.295Z,10.30
2023-02-18T00:28:58.339Z,10.30
2023-02-18T00:31:37.559Z,10.30
2023-02-18T00:34:06.003Z,10.30
2023-02-18T00:36:35.126Z,10.30
2023-02-18T00:39:09.663Z,10.30
2023-02-18T00:41:36.851Z,10.20
2023-02-18T00:44:04.376Z,10.30
2023-02-18T00:46:31.796Z,10.30
2023-02-18T00:49:20.120Z,10.30
2023-02-18T00:51:50.572Z,10.30
2023-02-18T00:54:17.628Z,10.30
2023-02-18T00:56:47.674Z,10.30
2023-02-18T00:59:14.812Z,10.30
2023-02-18T01:01:42.246Z,10.30
2023-02-18T01:04:12.045Z,10.30
2023-02-18T01:06:39.178Z,10.30
2023-02-18T01:09:06.591Z,10.30
2023-02-18T01:11:33.719Z,10.30
2023-02-18T01:14:00.852Z,10.30
2023-02-18T01:16:30.201Z,10.30
2023-02-18T01:18:58.368Z,10.30
2023-02-18T01:21:26.546Z,10.30
2023-02-18T01:23:53.496Z,10.30
2023-02-18T01:26:20.759Z,10.30
2023-02-18T01:28:47.703Z,10.30
2023-02-18T01:31:15.267Z,10.30
2023-02-18T01:33:42.721Z,10.30
2023-02-18T01:36:11.650Z,10.30
2023-02-18T01:38:39.318Z,10.30
2023-02-18T01:41:06.598Z,10.40
2023-02-18T01:43:34.200Z,10.40
2023-02-18T01:46:13.829Z,10.40
2023-02-18T01:48:50.672Z,10.40
2023-02-18T01:51:25.987Z,10.40
2023-02-18T01:54:16.841Z,10.40
2023-02-18T01:57:05.036Z,10.40
2023-02-18T01:59:38.835Z,10.40
2023-02-18T02:02:09.000Z,10.40
2023-02-18T02:04:35.959Z,10.40
2023-02-18T02:07:03.288Z,10.40
2023-02-18T02:09:32.324Z,10.40
2023-02-18T02:12:42.344Z,10.30
2023-02-18T02:15:21.734Z,10.40
2023-02-18T02:18:00.513Z,10.30
2023-02-18T02:21:01.544Z,10.40
2023-02-18T02:23:56.451Z,10.30
2023-02-18T02:27:11.257Z,10.30
2023-02-18T02:30:03.558Z,10.30
2023-02-18T02:32:48.583Z,10.20
2023-02-18T02:35:20.000Z,10.20
2023-02-18T02:38:02.421Z,10.20
2023-02-18T02:40:52.604Z,10.20
2023-02-18T02:43:41.173Z,10.20
2023-02-18T02:46:32.252Z,10.20
2023-02-18T02:49:14.336Z,10.20
2023-02-18T02:51:54.052Z,10.20
2023-02-18T02:54:25.212Z,10.20
2023-02-18T02:57:18.718Z,10.20
2023-02-18T03:00:11.857Z,10.30
2023-02-18T03:02:54.183Z,10.20
2023-02-18T03:05:33.173Z,10.20
2023-02-18T03:08:32.434Z,10.30
2023-02-18T03:11:18.765Z,10.30
2023-02-18T03:14:11.233Z,10.40
2023-02-18T03:16:49.429Z,10.40
2023-02-18T03:19:24.125Z,10.40
2023-02-18T03:22:07.873Z,10.40
2023-02-18T03:24:40.934Z,10.40
2023-02-18T03:27:32.118Z,10.50
2023-02-18T03:30:10.790Z,10.50
2023-02-18T03:32:37.755Z,10.50
2023-02-18T03:35:14.293Z,10.50
2023-02-18T03:37:51.161Z,10.50
2023-02-18T03:40:19.322Z,10.60
2023-02-18T03:42:46.458Z,10.50
2023-02-18T03:45:13.445Z,10.50
2023-02-18T03:47:41.810Z,10.60
2023-02-18T03:50:12.067Z,10.60
2023-02-18T03:52:39.032Z,10.60
2023-02-18T03:55:06.407Z,10.60
2023-02-18T03:57:33.654Z,10.60
2023-02-18T04:00:00.650Z,10.60
2023-02-18T04:02:27.778Z,10.60
2023-02-18T04:04:54.832Z,10.60
2023-02-18T04:07:22.303Z,10.60
2023-02-18T04:09:49.349Z,10.60
2023-02-18T04:12:19.250Z,10.60
2023-02-18T04:14:46.136Z,10.60
2023-02-18T04:17:13.044Z,10.60
2023-02-18T04:19:40.121Z,10.70
2023-02-18T04:22:07.249Z,10.70
2023-02-18T04:24:34.240Z,10.70
2023-02-18T04:27:01.234Z,10.70
2023-02-18T04:29:31.220Z,10.70
2023-02-18T04:31:58.351Z,10.70
2023-02-18T04:34:25.479Z,10.70
2023-02-18T04:36:52.626Z,10.70
2023-02-18T04:39:19.638Z,10.70
2023-02-18T04:41:46.615Z,10.70
2023-02-18T04:44:13.741Z,10.70
2023-02-18T04:46:40.817Z,10.70
2023-02-18T04:49:07.942Z,10.70
2023-02-18T04:51:35.071Z,10.70
2023-02-18T04:54:02.012Z,10.70
2023-02-18T04:56:32.095Z,10.70
2023-02-18T04:58:59.191Z,10.70
2023-02-18T05:01:26.302Z,10.70
2023-02-18T05:03:53.452Z,10.70
2023-02-18T05:06:20.584Z,10.60
2023-02-18T05:08:47.618Z,10.70
2023-02-18T05:11:14.618Z,10.60
2023-02-18T05:13:41.742Z,10.60
2023-02-18T05:16:09.027Z,10.60
2023-02-18T05:18:36.171Z,10.70
2023-02-18T05:21:03.435Z,10.60
2023-02-18T05:23:30.427Z,10.60
2023-02-18T05:25:59.852Z,10.60
2023-02-18T05:28:26.820Z,10.70
2023-02-18T05:30:56.410Z,10.70
2023-02-18T05:33:23.435Z,10.70
2023-02-18T05:35:50.544Z,10.70
2023-02-18T05:38:20.119Z,10.60
2023-02-18T05:40:47.806Z,10.70
2023-02-18T05:43:14.991Z,10.70
2023-02-18T05:45:41.984Z,10.60
2023-02-18T05:48:09.359Z,10.60
2023-02-18T05:50:36.440Z,10.60
2023-02-18T05:53:03.535Z,10.60
2023-02-18T05:55:37.923Z,10.60
2023-02-18T05:58:08.514Z,10.60
2023-02-18T06:00:35.554Z,10.60
2023-02-18T06:03:04.882Z,10.50
2023-02-18T06:05:32.028Z,10.50
2023-02-18T06:08:02.289Z,10.50
2023-02-18T06:10:29.481Z,10.50
2023-02-18T06:12:56.628Z,10.50
2023-02-18T06:15:23.813Z,10.50
2023-02-18T06:17:50.923Z,10.50
2023-02-18T06:20:18.366Z,10.50
2023-02-18T06:22:45.548Z,10.50
2023-02-18T06:25:12.584Z,10.50
2023-02-18T06:27:39.604Z,10.40
2023-02-18T06:30:08.615Z,10.40
2023-02-18T06:32:35.659Z,10.40
2023-02-18T06:35:03.543Z,10.40
2023-02-18T06:37:30.718Z,10.40
2023-02-18T06:39:57.910Z,10.40
2023-02-18T06:42:25.077Z,10.40
2023-02-18T06:44:52.204Z,10.40
2023-02-18T06:47:22.323Z,10.40
2023-02-18T06:49:50.035Z,10.40
2023-02-18T06:52:19.698Z,10.40
2023-02-18T06:54:46.818Z,10.40
2023-02-18T06:57:16.622Z,10.40
2023-02-18T06:59:44.109Z,10.40
2023-02-18T07:02:13.720Z,10.30
2023-02-18T07:04:40.963Z,10.30
2023-02-18T07:07:08.203Z,10.30
2023-02-18T07:09:35.475Z,10.30
2023-02-18T07:12:02.941Z,10.30
2023-02-18T07:14:30.151Z,10.30
2023-02-18T07:16:59.708Z,10.30
2023-02-18T07:19:29.564Z,10.30
2023-02-18T07:22:00.902Z,10.30
2023-02-18T07:24:28.172Z,10.30
2023-02-18T07:26:55.440Z,10.30
2023-02-18T07:29:30.184Z,10.30
2023-02-18T07:31:58.656Z,10.20
2023-02-18T07:34:31.134Z,10.20
2023-02-18T07:37:00.708Z,10.30
2023-02-18T07:39:27.876Z,10.20
2023-02-18T07:41:58.158Z,10.20
2023-02-18T07:44:27.810Z,10.20
2023-02-18T07:46:54.967Z,10.20
2023-02-18T07:49:24.771Z,10.20
2023-02-18T07:51:51.917Z,10.20
2023-02-18T07:54:19.071Z,10.20
2023-02-18T07:56:46.687Z,10.20
2023-02-18T07:59:14.205Z,10.20
2023-02-18T08:01:43.483Z,10.20
2023-02-18T08:04:11.286Z,10.20
2023-02-18T08:06:41.475Z,10.20
2023-02-18T08:09:11.790Z,10.10
2023-02-18T08:11:41.785Z,10.10
2023-02-18T08:14:09.282Z,10.10
2023-02-18T08:16:36.664Z,10.00
2023-02-18T08:19:04.278Z,10.00
2023-02-18T08:21:32.216Z,10.00
2023-02-18T08:24:00.233Z,10.10
2023-02-18T08:26:27.573Z,10.10
2023-02-18T08:28:54.751Z,10.10
2023-02-18T08:31:25.402Z,10.10
2023-02-18T08:33:54.627Z,10.10
2023-02-18T08:36:22.150Z,10.10
2023-02-18T08:38:49.599Z,10.00
2023-02-18T08:41:19.192Z,10.00
2023-02-18T08:43:50.236Z,9.90
2023-02-18T08:46:33.609Z,9.90
2023-02-18T08:49:09.148Z,9.90
2023-02-18T08:51:36.505Z,9.80
2023-02-18T08:54:42.117Z,9.80
2023-02-18T08:57:14.465Z,9.80
2023-02-18T08:59:41.869Z,9.80
2023-02-18T09:02:13.792Z,9.80
2023-02-18T09:07:32.735Z,9.80
2023-02-18T09:10:46.378Z,9.70
2023-02-18T09:13:21.222Z,9.70
2023-02-18T09:16:00.229Z,9.60
2023-02-18T09:18:28.019Z,9.60
2023-02-18T09:20:59.705Z,9.60
2023-02-18T09:23:29.781Z,9.60
2023-02-18T09:25:57.572Z,9.60
2023-02-18T09:28:26.470Z,9.50
2023-02-18T09:30:57.606Z,9.60
2023-02-18T09:33:28.675Z,9.50
2023-02-18T09:35:55.982Z,9.50
2023-02-18T09:38:24.792Z,9.50
2023-02-18T09:40:54.584Z,9.50
2023-02-18T09:43:35.415Z,9.50
2023-02-18T09:46:04.673Z,9.50
2023-02-18T09:48:37.718Z,9.50
2023-02-18T09:51:05.207Z,9.50
2023-02-18T09:53:32.474Z,9.60
2023-02-18T09:56:02.826Z,9.60
2023-02-18T09:58:34.281Z,9.60
2023-02-18T10:01:38.991Z,9.60
2023-02-18T10:04:20.258Z,9.60
2023-02-18T10:06:52.422Z,9.60
2023-02-18T10:09:33.431Z,9.60
2023-02-18T10:12:13.840Z,9.60
2023-02-18T10:14:41.674Z,9.60
2023-02-18T10:17:14.295Z,9.60
2023-02-18T10:19:41.484Z,9.60
2023-02-18T10:22:14.062Z,9.60
2023-02-18T10:25:04.933Z,9.60
2023-02-18T10:27:36.219Z,9.60
2023-02-18T10:30:18.296Z,9.60
2023-02-18T10:32:46.151Z,9.60
2023-02-18T10:35:21.334Z,9.60
2023-02-18T10:38:18.351Z,9.60
2023-02-18T10:41:10.236Z,9.60
2023-02-18T10:43:52.654Z,9.60
2023-02-18T10:46:27.649Z,9.60
2023-02-18T10:49:26.132Z,9.60
2023-02-18T10:51:58.035Z,9.70
2023-02-18T10:54:46.696Z,9.70
2023-02-18T10:57:28.113Z,9.70
2023-02-18T11:00:16.405Z,9.70
2023-02-18T11:02:45.964Z,9.60
2023-02-18T11:05:28.035Z,9.60
2023-02-18T11:08:07.402Z,9.70
2023-02-18T11:10:39.042Z,9.70
2023-02-18T11:13:12.944Z,9.70
2023-02-18T11:15:55.707Z,9.70
2023-02-18T11:18:38.745Z,9.80
2023-02-18T11:21:21.537Z,9.70
2023-02-18T11:23:51.606Z,9.80
2023-02-18T11:26:32.734Z,9.80
2023-02-18T11:29:07.916Z,9.80
2023-02-18T11:31:47.608Z,9.90
2023-02-18T11:34:21.809Z,9.90
2023-02-18T11:36:50.620Z,9.90
2023-02-18T11:39:28.214Z,9.90
2023-02-18T11:41:58.951Z,10.00
2023-02-18T11:44:34.540Z,10.00
2023-02-18T11:47:05.937Z,10.00
2023-02-18T11:49:35.121Z,10.10
2023-02-18T11:52:28.910Z,10.10
2023-02-18T11:55:05.707Z,10.20
2023-02-18T11:57:40.033Z,10.20
2023-02-18T12:00:44.100Z,10.30
2023-02-18T12:03:26.216Z,10.30
2023-02-18T12:06:06.277Z,10.30
2023-02-18T12:08:47.688Z,10.30
2023-02-18T12:11:28.758Z,10.30
2023-02-18T12:13:59.273Z,10.30
2023-02-18T12:17:01.532Z,10.40
2023-02-18T12:19:43.646Z,10.40
2023-02-18T12:22:41.965Z,10.40
2023-02-18T12:25:47.536Z,10.40
2023-02-18T12:29:03.859Z,10.40
2023-02-18T12:32:31.189Z,10.40
2023-02-18T12:35:37.455Z,10.40
2023-02-18T12:38:52.253Z,10.30
2023-02-18T12:42:13.941Z,10.30
2023-02-18T12:48:54.526Z,10.30
2023-02-18T12:51:49.544Z,10.40
2023-02-18T12:54:33.334Z,10.40
2023-02-18T12:57:26.577Z,10.40
2023-02-18T13:00:45.216Z,10.40
2023-02-18T13:04:01.866Z,10.40
2023-02-18T13:11:45.335Z,10.40
2023-02-18T13:14:32.889Z,10.40
2023-02-18T13:17:34.368Z,10.50
2023-02-18T13:20:26.476Z,10.50
2023-02-18T13:22:53.860Z,10.60
2023-02-18T13:25:23.999Z,10.60
2023-02-18T13:28:14.953Z,10.60
2023-02-18T13:30:50.170Z,10.70
2023-02-18T13:33:46.595Z,10.80
2023-02-18T13:36:43.506Z,10.90
2023-02-18T13:39:20.731Z,11.00
2023-02-18T13:41:50.637Z,11.00
2023-02-18T13:44:26.613Z,11.00
2023-02-18T13:46:56.634Z,11.00
2023-02-18T13:49:39.263Z,10.90
2023-02-18T13:52:07.734Z,11.00
2023-02-18T13:54:45.177Z,10.90
2023-02-18T13:57:27.426Z,11.00
2023-02-18T14:00:02.289Z,11.00
2023-02-18T14:02:35.850Z,11.00
2023-02-18T14:05:09.413Z,11.10
2023-02-18T14:08:16.328Z,11.10
2023-02-18T14:11:03.789Z,11.00
2023-02-18T14:13:43.293Z,11.00
2023-02-18T14:16:12.009Z,11.00
2023-02-18T14:18:38.974Z,11.00
2023-02-18T14:21:12.390Z,11.10
2023-02-18T14:24:09.868Z,11.10
2023-02-18T14:27:17.494Z,11.10
2023-02-18T14:29:50.721Z,11.20
2023-02-18T14:32:21.332Z,11.10
2023-02-18T14:35:36.311Z,11.10
2023-02-18T14:38:33.263Z,11.10
2023-02-18T14:41:21.617Z,11.10
2023-02-18T14:43:56.329Z,11.10
2023-02-18T14:46:54.148Z,11.10
2023-02-18T14:49:33.074Z,11.10
2023-02-18T14:52:06.431Z,11.10
2023-02-18T14:54:33.939Z,11.10
2023-02-18T14:57:09.980Z,11.10
2023-02-18T14:59:50.340Z,11.10
2023-02-18T15:02:30.980Z,11.10
2023-02-18T15:05:22.546Z,11.10
2023-02-18T15:12:32.008Z,11.20
2023-02-18T15:15:07.186Z,11.20
2023-02-18T15:21:01.297Z,11.20
2023-02-18T15:24:14.260Z,11.20
2023-02-18T15:26:49.259Z,11.20
2023-02-18T15:29:21.329Z,11.20
2023-02-18T15:31:49.602Z,11.20
2023-02-18T15:34:38.664Z,11.20
2023-02-18T15:37:14.817Z,11.20
2023-02-18T15:39:43.288Z,11.20
2023-02-18T15:42:19.759Z,11.20
2023-02-18T15:44:50.369Z,11.20
2023-02-18T15:47:19.008Z,11.20
2023-02-18T15:49:51.253Z,11.30
2023-02-18T15:52:34.119Z,11.30
2023-02-18T15:55:11.941Z,11.30
2023-02-18T15:57:40.269Z,11.30
2023-02-18T16:00:37.414Z,11.30
2023-02-18T16:03:20.144Z,11.30
2023-02-18T16:05:47.298Z,11.30
2023-02-18T16:09:01.548Z,11.30
2023-02-18T16:11:41.622Z,11.30
2023-02-18T16:14:31.782Z,11.20
2023-02-18T16:17:13.573Z,11.30
2023-02-18T16:20:05.312Z,11.20
2023-02-18T16:22:35.499Z,11.20
2023-02-18T16:25:08.634Z,11.20
2023-02-18T16:27:38.115Z,11.20
2023-02-18T16:30:24.330Z,11.20
2023-02-18T16:32:52.158Z,11.10
2023-02-18T16:35:19.649Z,11.10
2023-02-18T16:37:50.097Z,11.10
2023-02-18T16:43:55.145Z,11.10
2023-02-18T16:46:23.983Z,11.00
2023-02-18T16:48:55.178Z,11.00
2023-02-18T16:51:34.665Z,11.00
2023-02-18T16:54:01.878Z,11.00
2023-02-18T16:56:33.416Z,11.00
2023-02-18T16:59:00.556Z,11.00
2023-02-18T17:01:38.383Z,11.00
2023-02-18T17:04:06.172Z,11.00
2023-02-18T17:06:34.181Z,11.00
2023-02-18T17:09:01.804Z,11.00
2023-02-18T17:11:34.167Z,11.00
2023-02-18T17:14:05.207Z,11.00
2023-02-18T17:16:32.849Z,10.90
2023-02-18T17:18:59.847Z,10.90
2023-02-18T17:21:27.058Z,10.90
2023-02-18T17:23:54.756Z,10.90
2023-02-18T17:26:30.862Z,10.90
2023-02-18T17:29:00.609Z,10.90
2023-02-18T17:31:31.435Z,10.90
2023-02-18T17:34:05.996Z,10.90
2023-02-18T17:36:33.206Z,10.90
2023-02-18T17:39:02.652Z,10.90
2023-02-18T17:41:32.966Z,10.90
2023-02-18T17:44:00.046Z,10.90
2023-02-18T17:46:31.458Z,10.90
2023-02-18T17:49:01.947Z,10.90
2023-02-18T17:51:30.120Z,10.90
2023-02-18T17:53:57.482Z,10.90
2023-02-18T17:56:24.592Z,10.90
2023-02-18T17:58:51.640Z,10.90
2023-02-18T18:01:21.147Z,10.90
2023-02-18T18:03:48.281Z,10.90
2023-02-18T18:06:20.692Z,10.90
2023-02-18T18:08:48.702Z,11.00
2023-02-18T18:11:25.128Z,10.90
2023-02-18T18:13:53.065Z,11.00
2023-02-18T18:16:20.638Z,10.90
2023-02-18T18:18:47.737Z,11.00
2023-02-18T18:21:37.677Z,10.90
2023-02-18T18:24:18.248Z,10.90
2023-02-18T18:26:48.518Z,10.90
2023-02-18T18:29:18.856Z,10.90
2023-02-18T18:31:47.347Z,10.90
2023-02-18T18:34:21.464Z,10.90
2023-02-18T18:36:51.722Z,10.80
2023-02-18T18:40:00.548Z,10.90
2023-02-18T18:42:30.530Z,10.90
2023-02-18T18:49:08.609Z,10.90
2023-02-18T18:51:56.830Z,10.90
2023-02-18T18:54:32.029Z,10.90
2023-02-18T18:59:44.014Z,10.80
2023-02-18T19:02:21.876Z,10.90
2023-02-18T19:04:48.888Z,10.90
2023-02-18T19:07:15.843Z,10.90
2023-02-18T19:09:45.853Z,10.80
2023-02-18T19:12:16.230Z,10.80
2023-02-18T19:14:46.061Z,10.70
2023-02-18T19:17:13.162Z,10.60
2023-02-18T19:19:46.223Z,10.60
2023-02-18T19:22:16.260Z,10.60
2023-02-18T19:24:43.676Z,10.50
2023-02-18T19:27:41.116Z,10.50
2023-02-18T19:30:08.305Z,10.50
2023-02-18T19:32:40.546Z,10.50
2023-02-18T19:35:08.106Z,10.50
2023-02-18T19:37:35.906Z,10.50
2023-02-18T19:40:04.203Z,10.50
2023-02-18T19:42:31.374Z,10.50
2023-02-18T19:49:45.655Z,10.40
2023-02-18T19:52:15.634Z,10.40
2023-02-18T19:54:47.947Z,10.40
2023-02-18T19:57:18.575Z,10.40
2023-02-18T19:59:55.040Z,10.40
2023-02-18T20:02:34.155Z,10.40
2023-02-18T20:08:14.460Z,10.40
2023-02-18T20:14:12.334Z,10.50
2023-02-18T20:16:44.340Z,10.50
2023-02-18T20:19:11.472Z,10.40
2023-02-18T20:21:38.648Z,10.50
2023-02-18T20:24:13.082Z,10.50
2023-02-18T20:26:45.746Z,10.50
2023-02-18T20:29:12.906Z,10.50
2023-02-18T20:32:19.195Z,10.50
2023-02-18T20:34:49.998Z,10.50
2023-02-18T20:37:46.551Z,10.50
2023-02-18T20:41:18.692Z,10.50
2023-02-18T20:43:46.987Z,10.50
2023-02-18T20:46:16.762Z,10.40
2023-02-18T20:48:46.678Z,10.40
2023-02-18T20:51:16.863Z,10.40
2023-02-18T20:54:16.759Z,10.40
2023-02-18T20:56:44.433Z,10.40
2023-02-18T20:59:16.810Z,10.40
2023-02-18T21:06:16.084Z,10.30
2023-02-18T21:10:48.354Z,10.30
2023-02-18T21:13:09.957Z,10.30
2023-02-18T21:15:38.034Z,10.30
2023-02-18T21:18:05.247Z,10.30
2023-02-18T21:20:32.690Z,10.30
2023-02-18T21:23:01.833Z,10.30
2023-02-18T21:25:40.640Z,10.30
2023-02-18T21:28:10.478Z,10.30
2023-02-18T21:30:39.868Z,10.30
2023-02-18T21:33:10.944Z,10.30
2023-02-18T21:35:40.380Z,10.30
2023-02-18T21:38:10.632Z,10.30
2023-02-18T21:40:37.913Z,10.30
2023-02-18T21:43:07.299Z,10.30
2023-02-18T21:50:42.687Z,10.30
2023-02-18T21:53:20.647Z,10.30
2023-02-18T21:56:03.066Z,10.30
2023-02-18T21:58:37.131Z,10.30
2023-02-18T22:01:05.660Z,10.30
2023-02-18T22:03:33.045Z,10.30
2023-02-18T22:06:00.177Z,10.30
2023-02-18T22:08:28.910Z,10.20
2023-02-18T22:10:58.483Z,10.20
2023-02-18T22:13:25.474Z,10.30
2023-02-18T22:16:00.447Z,10.30
2023-02-18T22:18:36.193Z,10.30
2023-02-18T22:21:10.815Z,10.30
2023-02-18T22:23:40.652Z,10.20
2023-02-18T22:26:09.998Z,10.30
2023-02-18T22:28:39.601Z,10.30
2023-02-18T22:31:11.950Z,10.30
2023-02-18T22:33:44.560Z,10.30
2023-02-18T22:36:11.807Z,10.30
2023-02-18T22:38:39.803Z,10.30
2023-02-18T22:41:08.964Z,10.30
2023-02-18T22:43:36.359Z,10.30
2023-02-18T22:46:06.004Z,10.30
2023-02-18T22:48:34.353Z,10.30
2023-02-18T22:51:25.117Z,10.30
2023-02-18T22:53:59.619Z,10.30
2023-02-18T22:56:29.043Z,10.30
2023-02-18T22:58:58.220Z,10.30
2023-02-18T23:01:31.362Z,10.30
2023-02-18T23:04:07.699Z,10.30
2023-02-18T23:06:36.254Z,10.30
2023-02-18T23:09:04.244Z,10.30
2023-02-18T23:11:31.373Z,10.40
2023-02-18T23:14:16.886Z,10.40
2023-02-18T23:17:14.711Z,10.40
2023-02-18T23:19:46.043Z,10.40
2023-02-18T23:22:16.161Z,10.40
2023-02-18T23:24:44.891Z,10.30
2023-02-18T23:27:14.116Z,10.40
2023-02-18T23:29:41.614Z,10.40
2023-02-18T23:32:12.061Z,10.40
2023-02-18T23:34:39.419Z,10.30
2023-02-18T23:37:06.765Z,10.40
2023-02-18T23:39:37.030Z,10.30
2023-02-18T23:42:04.651Z,10.30
2023-02-18T23:44:31.961Z,10.30
2023-02-18T23:47:11.462Z,10.20
2023-02-18T23:49:40.856Z,10.20
2023-02-18T23:52:11.219Z,10.10
2023-02-18T23:54:38.535Z,10.10
2023-02-18T23:57:05.701Z,10.10
2023-02-18T23:59:32.978Z,10.00
